Time;durP1;ratioP1;P1;durP2;ratioP2;P2;SDS_P1;SDS_P2;PMS_P1;PMS_P2;Temp;Humidity;BMP_temperature;BMP_pressure;BME280_temperature;BME280_humidity;BME280_pressure;Samples;Min_cycle;Max_cycle;Signal;HPM_P1;HPM_P2
2021/09/19 00:02:07;;;;;;;7.78;6.10;;;;;;;;;;4797612;29;20062;-83
2021/09/19 00:04:32;;;;;;;8.63;7.00;;;;;;;;;;4775064;30;20161;-83
2021/09/19 00:06:58;;;;;;;8.00;6.45;;;;;;;;;;4770152;30;20040;-84
2021/09/19 00:09:23;;;;;;;8.25;6.95;;;;;;;;;;4773335;30;20050;-84
2021/09/19 00:11:49;;;;;;;8.55;6.88;;;;;;;;;;4773290;30;21945;-83
2021/09/19 00:14:16;;;;;;;9.55;7.63;;;;;;;;;;4759483;30;20130;-84
2021/09/19 00:16:42;;;;;;;9.73;7.13;;;;;;;;;;4783359;29;20035;-84
2021/09/19 00:19:09;;;;;;;8.13;6.78;;;;;;;;;;4777693;30;20421;-83
2021/09/19 00:21:34;;;;;;;9.32;7.47;;;;;;;;;;4784231;29;20480;-81
2021/09/19 00:24:00;;;;;;;9.38;7.53;;;;;;;;;;4781236;30;20038;-85
2021/09/19 00:26:25;;;;;;;8.48;7.20;;;;;;;;;;4771851;30;20048;-86
2021/09/19 00:28:51;;;;;;;7.90;6.95;;;;;;;;;;4777108;30;20043;-82
2021/09/19 00:31:16;;;;;;;11.60;7.10;;;;;;;;;;4773844;30;20027;-83
2021/09/19 00:33:42;;;;;;;8.90;7.45;;;;;;;;;;4774925;30;20038;-85
2021/09/19 00:36:08;;;;;;;9.55;7.35;;;;;;;;;;4799853;29;20051;-83
2021/09/19 00:38:33;;;;;;;9.07;7.10;;;;;;;;;;4792840;29;20105;-84
2021/09/19 00:40:59;;;;;;;7.97;6.95;;;;;;;;;;4773552;30;20034;-83
2021/09/19 00:43:24;;;;;;;8.35;7.18;;;;;;;;;;4761989;30;20047;-82
2021/09/19 00:45:50;;;;;;;8.23;7.32;;;;;;;;;;4773153;30;20118;-84
2021/09/19 00:48:15;;;;;;;9.13;7.20;;;;;;;;;;4785911;29;20039;-82
2021/09/19 00:50:41;;;;;;;8.95;7.25;;;;;;;;;;4788790;29;20416;-85
2021/09/19 00:53:08;;;;;;;7.85;7.03;;;;;;;;;;4773414;30;20138;-82
2021/09/19 00:55:33;;;;;;;9.82;7.07;;;;;;;;;;4780027;30;20096;-84
2021/09/19 00:58:04;;;;;;;9.27;7.25;;;;;;;;;;4776979;29;20039;-84
2021/09/19 01:00:30;;;;;;;8.77;7.13;;;;;;;;;;4777748;30;20027;-84
2021/09/19 01:02:56;;;;;;;8.45;7.38;;;;;;;;;;4787807;29;20039;-83
2021/09/19 01:05:22;;;;;;;9.48;7.28;;;;;;;;;;4778701;29;20066;-84
2021/09/19 01:07:48;;;;;;;7.97;7.18;;;;;;;;;;4785440;29;20068;-83
2021/09/19 01:10:16;;;;;;;9.65;7.13;;;;;;;;;;4790954;30;20047;-82
2021/09/19 01:12:42;;;;;;;8.48;7.55;;;;;;;;;;4779821;30;20031;-82
2021/09/19 01:15:10;;;;;;;9.65;7.30;;;;;;;;;;4774501;30;20043;-85
2021/09/19 01:17:38;;;;;;;8.15;7.15;;;;;;;;;;4787953;29;20035;-84
2021/09/19 01:20:04;;;;;;;8.23;7.13;;;;;;;;;;4786776;29;20315;-85
2021/09/19 01:22:32;;;;;;;9.73;7.22;;;;;;;;;;4789190;30;20046;-82
2021/09/19 01:24:58;;;;;;;8.85;7.13;;;;;;;;;;4786268;29;20035;-84
2021/09/19 01:27:24;;;;;;;8.30;7.40;;;;;;;;;;4782499;30;20617;-84
2021/09/19 01:29:49;;;;;;;10.90;7.60;;;;;;;;;;4767544;29;20130;-83
2021/09/19 01:32:21;;;;;;;9.13;7.22;;;;;;;;;;4778149;29;20114;-84
2021/09/19 01:34:47;;;;;;;8.32;7.40;;;;;;;;;;4786971;29;20044;-84
2021/09/19 01:37:12;;;;;;;8.45;7.45;;;;;;;;;;4765390;30;20051;-85
2021/09/19 01:39:38;;;;;;;8.88;7.60;;;;;;;;;;4788419;29;20038;-83
2021/09/19 01:42:03;;;;;;;9.82;7.57;;;;;;;;;;4778492;29;20039;-82
2021/09/19 01:44:30;;;;;;;8.20;7.28;;;;;;;;;;4772260;29;20035;-82
2021/09/19 01:46:55;;;;;;;9.20;7.82;;;;;;;;;;4794833;29;20038;-84
2021/09/19 01:49:21;;;;;;;9.50;7.47;;;;;;;;;;4789570;29;20454;-82
2021/09/19 01:51:47;;;;;;;8.30;7.43;;;;;;;;;;4749650;29;20087;-82
2021/09/19 01:54:13;;;;;;;10.27;7.68;;;;;;;;;;4789702;29;20038;-85
2021/09/19 01:56:38;;;;;;;8.38;7.30;;;;;;;;;;4786822;30;20034;-82
2021/09/19 01:59:03;;;;;;;9.57;7.25;;;;;;;;;;4790204;29;20126;-84
2021/09/19 02:01:29;;;;;;;9.63;7.32;;;;;;;;;;4760662;30;20415;-84
2021/09/19 02:03:55;;;;;;;10.10;7.38;;;;;;;;;;4760692;30;20092;-83
2021/09/19 02:06:21;;;;;;;8.95;7.38;;;;;;;;;;4783889;29;20495;-84
2021/09/19 02:08:48;;;;;;;9.02;7.63;;;;;;;;;;4788009;29;20039;-82
2021/09/19 02:11:15;;;;;;;9.05;7.88;;;;;;;;;;4774484;30;20082;-85
2021/09/19 02:13:42;;;;;;;9.25;7.53;;;;;;;;;;4782811;29;20087;-84
2021/09/19 02:16:08;;;;;;;8.30;7.35;;;;;;;;;;4796083;29;20484;-82
2021/09/19 02:18:35;;;;;;;8.32;7.10;;;;;;;;;;4786520;30;20122;-85
2021/09/19 02:21:04;;;;;;;9.02;7.13;;;;;;;;;;4787074;29;20031;-83
2021/09/19 02:23:30;;;;;;;7.85;6.93;;;;;;;;;;4769979;30;20028;-84
2021/09/19 02:25:56;;;;;;;8.70;7.30;;;;;;;;;;4773564;30;20099;-84
2021/09/19 02:28:21;;;;;;;8.20;6.85;;;;;;;;;;4788696;29;20474;-82
2021/09/19 02:30:47;;;;;;;8.30;7.00;;;;;;;;;;4778868;29;20512;-84
2021/09/19 02:33:13;;;;;;;8.43;6.70;;;;;;;;;;4788484;29;20027;-84
2021/09/19 02:35:39;;;;;;;8.43;7.15;;;;;;;;;;4780808;29;20039;-82
2021/09/19 02:38:05;;;;;;;7.80;7.00;;;;;;;;;;4789992;29;20023;-82
2021/09/19 02:40:30;;;;;;;8.25;7.00;;;;;;;;;;4784312;30;20385;-84
2021/09/19 02:42:56;;;;;;;7.85;7.05;;;;;;;;;;4787622;29;20062;-83
2021/09/19 02:45:22;;;;;;;7.63;6.82;;;;;;;;;;4773758;30;20039;-83
2021/09/19 02:47:48;;;;;;;7.85;6.70;;;;;;;;;;4786241;29;20035;-82
2021/09/19 02:50:17;;;;;;;7.10;6.40;;;;;;;;;;4791746;29;20336;-82
2021/09/19 02:52:42;;;;;;;7.53;6.70;;;;;;;;;;4792501;29;20092;-84
2021/09/19 02:55:09;;;;;;;7.43;6.35;;;;;;;;;;4796885;29;20039;-83
2021/09/19 02:57:35;;;;;;;7.95;7.13;;;;;;;;;;4777410;29;20503;-82
2021/09/19 03:00:00;;;;;;;9.35;7.03;;;;;;;;;;4785358;29;20031;-83
2021/09/19 03:02:26;;;;;;;9.70;6.43;;;;;;;;;;4759972;30;20046;-82
2021/09/19 03:04:51;;;;;;;8.45;6.43;;;;;;;;;;4758290;30;20104;-84
2021/09/19 03:07:17;;;;;;;8.75;7.15;;;;;;;;;;4795074;29;20051;-84
2021/09/19 03:09:42;;;;;;;9.02;7.13;;;;;;;;;;4774064;30;20042;-82
2021/09/19 03:12:07;;;;;;;7.50;6.45;;;;;;;;;;4772830;30;20028;-84
2021/09/19 03:14:33;;;;;;;9.07;6.82;;;;;;;;;;4787532;29;20054;-82
2021/09/19 03:16:58;;;;;;;9.38;6.60;;;;;;;;;;4777785;30;20044;-84
2021/09/19 03:19:24;;;;;;;7.90;6.80;;;;;;;;;;4787361;29;20407;-82
2021/09/19 03:21:49;;;;;;;8.60;6.60;;;;;;;;;;4785723;29;20538;-83
2021/09/19 03:24:15;;;;;;;7.82;6.40;;;;;;;;;;4785982;29;20062;-82
2021/09/19 03:26:40;;;;;;;7.93;6.78;;;;;;;;;;4789629;30;20039;-82
2021/09/19 03:29:06;;;;;;;9.23;6.80;;;;;;;;;;4774531;29;20031;-82
2021/09/19 03:31:32;;;;;;;7.80;6.82;;;;;;;;;;4773273;29;20169;-84
2021/09/19 03:33:57;;;;;;;7.72;6.93;;;;;;;;;;4760477;30;20051;-83
2021/09/19 03:36:22;;;;;;;9.75;7.70;;;;;;;;;;4742721;29;20035;-82
2021/09/19 03:38:48;;;;;;;8.00;7.20;;;;;;;;;;4749078;29;20091;-84
2021/09/19 03:41:14;;;;;;;8.68;7.75;;;;;;;;;;4756785;30;20058;-82
2021/09/19 03:43:40;;;;;;;9.23;7.07;;;;;;;;;;4789681;29;20042;-84
2021/09/19 03:46:06;;;;;;;7.68;6.88;;;;;;;;;;4791216;29;20030;-82
2021/09/19 03:48:31;;;;;;;8.52;6.97;;;;;;;;;;4743634;29;20561;-84
2021/09/19 03:50:57;;;;;;;10.02;7.32;;;;;;;;;;4780188;29;20067;-82
2021/09/19 03:53:22;;;;;;;7.78;6.97;;;;;;;;;;4783644;29;20058;-82
2021/09/19 03:55:47;;;;;;;7.70;6.90;;;;;;;;;;4755018;29;20165;-82
2021/09/19 03:58:13;;;;;;;7.95;7.15;;;;;;;;;;4791706;29;20037;-83
2021/09/19 04:00:38;;;;;;;7.25;6.43;;;;;;;;;;4744861;30;20043;-82
2021/09/19 04:03:04;;;;;;;8.70;7.18;;;;;;;;;;4789722;29;20518;-84
2021/09/19 04:05:29;;;;;;;7.97;6.75;;;;;;;;;;4766590;30;20510;-82
2021/09/19 04:07:55;;;;;;;8.48;6.80;;;;;;;;;;4763206;30;20039;-82
2021/09/19 04:10:20;;;;;;;9.23;6.88;;;;;;;;;;4789843;29;20064;-82
2021/09/19 04:12:45;;;;;;;7.80;6.63;;;;;;;;;;4777758;30;20492;-83
2021/09/19 04:15:12;;;;;;;7.85;6.85;;;;;;;;;;4763486;29;20039;-84
2021/09/19 04:17:37;;;;;;;8.07;6.75;;;;;;;;;;4777216;30;20027;-82
2021/09/19 04:20:05;;;;;;;8.57;6.97;;;;;;;;;;4797347;29;20075;-83
2021/09/19 04:22:30;;;;;;;8.57;6.90;;;;;;;;;;4789801;29;20035;-84
2021/09/19 04:24:56;;;;;;;7.97;7.03;;;;;;;;;;4776730;29;20090;-84
2021/09/19 04:27:21;;;;;;;8.55;7.40;;;;;;;;;;4771425;29;20046;-84
2021/09/19 04:29:47;;;;;;;8.15;7.18;;;;;;;;;;4775969;30;21933;-82
2021/09/19 04:32:13;;;;;;;11.68;7.72;;;;;;;;;;4791383;29;20031;-84
2021/09/19 04:34:39;;;;;;;9.32;7.35;;;;;;;;;;4780794;29;20054;-82
2021/09/19 04:37:04;;;;;;;8.88;7.25;;;;;;;;;;4764311;30;20134;-82
2021/09/19 04:39:29;;;;;;;8.60;7.53;;;;;;;;;;4740172;30;20063;-84
2021/09/19 04:41:55;;;;;;;10.40;7.80;;;;;;;;;;4776488;30;20408;-83
2021/09/19 04:44:20;;;;;;;9.35;7.97;;;;;;;;;;4776049;29;20507;-82
2021/09/19 04:46:46;;;;;;;10.02;7.70;;;;;;;;;;4795389;29;20043;-82
2021/09/19 04:49:11;;;;;;;9.35;7.95;;;;;;;;;;4794109;29;20045;-84
2021/09/19 04:51:37;;;;;;;10.63;7.60;;;;;;;;;;4790103;29;20051;-84
2021/09/19 04:54:02;;;;;;;8.40;7.40;;;;;;;;;;4790170;29;20042;-84
2021/09/19 04:56:28;;;;;;;8.05;7.25;;;;;;;;;;4786157;29;20031;-84
2021/09/19 04:58:53;;;;;;;9.13;8.02;;;;;;;;;;4793960;29;20049;-83
2021/09/19 05:01:19;;;;;;;8.73;7.82;;;;;;;;;;4798338;29;20058;-84
2021/09/19 05:03:44;;;;;;;8.80;7.57;;;;;;;;;;4760727;29;20031;-84
2021/09/19 05:06:10;;;;;;;9.82;8.10;;;;;;;;;;4792723;30;20415;-83
2021/09/19 05:08:36;;;;;;;9.82;8.05;;;;;;;;;;4788056;29;20028;-84
2021/09/19 05:11:02;;;;;;;8.85;7.68;;;;;;;;;;4783472;29;20054;-82
2021/09/19 05:13:27;;;;;;;9.23;7.60;;;;;;;;;;4791275;29;22046;-82
2021/09/19 05:15:53;;;;;;;9.52;8.10;;;;;;;;;;4791627;29;20034;-83
2021/09/19 05:18:18;;;;;;;10.43;7.97;;;;;;;;;;4761306;30;20046;-82
2021/09/19 05:20:43;;;;;;;9.65;8.20;;;;;;;;;;4795493;29;20031;-82
2021/09/19 05:23:09;;;;;;;10.65;8.40;;;;;;;;;;4784273;29;20042;-84
2021/09/19 05:25:34;;;;;;;9.20;8.10;;;;;;;;;;4792801;29;20044;-82
2021/09/19 05:28:00;;;;;;;9.77;8.68;;;;;;;;;;4789652;29;20054;-84
2021/09/19 05:30:25;;;;;;;10.98;9.43;;;;;;;;;;4790286;29;20487;-83
2021/09/19 05:32:51;;;;;;;9.70;8.70;;;;;;;;;;4788173;29;20034;-84
2021/09/19 05:35:16;;;;;;;11.43;8.95;;;;;;;;;;4783626;29;20536;-84
2021/09/19 05:37:41;;;;;;;11.48;8.77;;;;;;;;;;4784974;29;20039;-82
2021/09/19 05:40:08;;;;;;;10.90;9.20;;;;;;;;;;4798297;29;20078;-83
2021/09/19 05:42:34;;;;;;;10.07;8.82;;;;;;;;;;4789681;30;20039;-82
2021/09/19 05:45:00;;;;;;;12.57;9.63;;;;;;;;;;4794069;29;20031;-84
2021/09/19 05:47:26;;;;;;;10.75;9.15;;;;;;;;;;4789798;29;20043;-83
2021/09/19 05:49:51;;;;;;;11.02;9.52;;;;;;;;;;4768563;29;20045;-82
2021/09/19 05:52:17;;;;;;;13.18;9.82;;;;;;;;;;4796119;29;20039;-84
2021/09/19 05:54:42;;;;;;;10.77;8.85;;;;;;;;;;4791507;29;20038;-82
2021/09/19 05:57:07;;;;;;;11.57;9.77;;;;;;;;;;4785847;29;20489;-85
2021/09/19 05:59:33;;;;;;;12.10;9.68;;;;;;;;;;4789257;29;20026;-83
2021/09/19 06:01:59;;;;;;;11.07;9.40;;;;;;;;;;4781901;29;20031;-84
2021/09/19 06:04:24;;;;;;;11.07;8.93;;;;;;;;;;4785722;29;20047;-84
2021/09/19 06:06:50;;;;;;;10.55;9.13;;;;;;;;;;4795774;29;20506;-84
2021/09/19 06:09:15;;;;;;;11.27;9.18;;;;;;;;;;4779898;30;20054;-84
2021/09/19 06:11:42;;;;;;;10.65;9.43;;;;;;;;;;4789480;29;20069;-82
2021/09/19 06:14:08;;;;;;;11.55;10.00;;;;;;;;;;4768337;30;20485;-84
2021/09/19 06:16:34;;;;;;;12.13;9.30;;;;;;;;;;4770963;30;20122;-84
2021/09/19 06:18:59;;;;;;;12.80;9.73;;;;;;;;;;4786602;29;20074;-82
2021/09/19 06:21:25;;;;;;;12.07;9.38;;;;;;;;;;4791671;29;20429;-82
2021/09/19 06:23:50;;;;;;;11.38;9.27;;;;;;;;;;4787591;29;20130;-82
2021/09/19 06:26:16;;;;;;;11.20;8.80;;;;;;;;;;4756740;30;20443;-82
2021/09/19 06:28:41;;;;;;;11.23;9.68;;;;;;;;;;4774076;29;20060;-82
2021/09/19 06:31:06;;;;;;;11.38;9.38;;;;;;;;;;4772161;30;20134;-82
2021/09/19 06:33:33;;;;;;;10.73;9.02;;;;;;;;;;4783254;29;20107;-84
2021/09/19 06:35:58;;;;;;;11.10;9.60;;;;;;;;;;4795016;29;20043;-82
2021/09/19 06:38:24;;;;;;;11.65;9.32;;;;;;;;;;4744935;30;20039;-82
2021/09/19 06:40:49;;;;;;;12.80;9.52;;;;;;;;;;4791790;29;20088;-83
2021/09/19 06:43:14;;;;;;;11.55;9.15;;;;;;;;;;4793697;29;20039;-83
2021/09/19 06:45:40;;;;;;;12.35;9.00;;;;;;;;;;4790221;30;20043;-82
2021/09/19 06:48:05;;;;;;;11.30;9.48;;;;;;;;;;4784738;29;20069;-82
2021/09/19 06:50:31;;;;;;;10.15;8.77;;;;;;;;;;4770880;30;20576;-82
2021/09/19 06:52:56;;;;;;;11.30;9.95;;;;;;;;;;4791254;29;20083;-81
2021/09/19 06:55:22;;;;;;;12.48;8.68;;;;;;;;;;4774678;29;20041;-84
2021/09/19 06:57:54;;;;;;;12.02;8.93;;;;;;;;;;4782482;29;20039;-81
2021/09/19 07:00:20;;;;;;;10.30;8.90;;;;;;;;;;4794717;29;20031;-85
2021/09/19 07:02:45;;;;;;;10.77;8.55;;;;;;;;;;4773839;30;20039;-85
2021/09/19 07:05:10;;;;;;;9.93;8.55;;;;;;;;;;4790212;29;20395;-84
2021/09/19 07:07:36;;;;;;;10.90;8.35;;;;;;;;;;4745362;30;20059;-81
2021/09/19 07:10:01;;;;;;;13.15;8.73;;;;;;;;;;4780844;30;20043;-84
2021/09/19 07:12:27;;;;;;;10.00;8.45;;;;;;;;;;4761100;30;20027;-84
2021/09/19 07:14:52;;;;;;;11.82;8.93;;;;;;;;;;4795337;29;20100;-83
2021/09/19 07:17:18;;;;;;;13.07;9.15;;;;;;;;;;4773559;30;20055;-84
2021/09/19 07:19:43;;;;;;;10.27;8.68;;;;;;;;;;4781980;29;20046;-81
2021/09/19 07:22:09;;;;;;;9.98;8.65;;;;;;;;;;4770332;30;20049;-84
2021/09/19 07:24:35;;;;;;;9.18;8.00;;;;;;;;;;4781974;29;20039;-81
2021/09/19 07:27:03;;;;;;;11.57;8.60;;;;;;;;;;4784733;29;20043;-81
2021/09/19 07:29:30;;;;;;;10.00;8.43;;;;;;;;;;4781219;29;20069;-83
2021/09/19 07:31:55;;;;;;;10.43;8.73;;;;;;;;;;4753744;30;20043;-85
2021/09/19 07:34:21;;;;;;;10.18;8.65;;;;;;;;;;4788145;29;20421;-81
2021/09/19 07:36:48;;;;;;;11.23;8.68;;;;;;;;;;4778550;30;20043;-82
2021/09/19 07:39:13;;;;;;;9.82;8.38;;;;;;;;;;4783036;29;20045;-85
2021/09/19 07:41:39;;;;;;;9.60;8.25;;;;;;;;;;4782037;29;20571;-81
2021/09/19 07:44:05;;;;;;;10.48;7.45;;;;;;;;;;4770533;30;20041;-81
2021/09/19 07:46:31;;;;;;;11.20;8.05;;;;;;;;;;4767546;30;20062;-82
2021/09/19 07:48:56;;;;;;;9.68;7.93;;;;;;;;;;4751171;29;20076;-84
2021/09/19 07:51:23;;;;;;;8.65;7.03;;;;;;;;;;4770375;30;20412;-84
2021/09/19 07:53:50;;;;;;;10.27;7.70;;;;;;;;;;4793164;29;20130;-82
2021/09/19 07:56:15;;;;;;;9.68;7.78;;;;;;;;;;4785879;29;20088;-81
2021/09/19 07:58:41;;;;;;;9.65;7.18;;;;;;;;;;4773316;29;20651;-80
2021/09/19 08:01:06;;;;;;;11.10;7.57;;;;;;;;;;4773259;30;20459;-84
2021/09/19 08:03:32;;;;;;;9.20;7.63;;;;;;;;;;4789820;29;20027;-81
2021/09/19 08:05:57;;;;;;;11.05;7.25;;;;;;;;;;4787753;29;20058;-82
2021/09/19 08:08:23;;;;;;;9.25;6.78;;;;;;;;;;4786363;29;20036;-84
2021/09/19 08:10:48;;;;;;;7.72;6.47;;;;;;;;;;4786593;29;20832;-81
2021/09/19 08:13:14;;;;;;;10.10;7.25;;;;;;;;;;4790170;29;20042;-85
2021/09/19 08:15:39;;;;;;;8.50;6.95;;;;;;;;;;4770915;30;20077;-87
2021/09/19 08:18:05;;;;;;;8.32;6.47;;;;;;;;;;4785752;29;20031;-82
2021/09/19 08:20:32;;;;;;;8.50;6.10;;;;;;;;;;4786323;29;20479;-81
2021/09/19 08:22:58;;;;;;;8.05;6.53;;;;;;;;;;4785987;29;20034;-82
2021/09/19 08:25:25;;;;;;;7.90;5.85;;;;;;;;;;4786315;29;20905;-85
2021/09/19 08:27:51;;;;;;;8.35;6.22;;;;;;;;;;4758833;30;20612;-82
2021/09/19 08:30:17;;;;;;;8.95;5.95;;;;;;;;;;4787340;29;20039;-82
2021/09/19 08:32:43;;;;;;;7.18;5.72;;;;;;;;;;4766671;29;20043;-85
2021/09/19 08:35:10;;;;;;;6.80;5.32;;;;;;;;;;4775824;29;20092;-81
2021/09/19 08:37:36;;;;;;;6.63;5.15;;;;;;;;;;4780906;29;20051;-84
2021/09/19 08:40:03;;;;;;;7.47;5.10;;;;;;;;;;4778362;29;20067;-82
2021/09/19 08:42:28;;;;;;;6.65;5.30;;;;;;;;;;4786330;29;20488;-85
2021/09/19 08:44:54;;;;;;;5.75;4.82;;;;;;;;;;4787225;29;20130;-84
2021/09/19 08:47:21;;;;;;;6.82;5.43;;;;;;;;;;4775655;29;20134;-84
2021/09/19 08:49:46;;;;;;;6.20;5.07;;;;;;;;;;4789220;29;20039;-81
2021/09/19 08:52:12;;;;;;;6.80;5.13;;;;;;;;;;4792716;29;20058;-82
2021/09/19 08:54:39;;;;;;;7.57;5.03;;;;;;;;;;4762900;30;20453;-81
2021/09/19 08:57:05;;;;;;;5.63;4.57;;;;;;;;;;4774137;29;20069;-81
2021/09/19 08:59:51;;;;;;;7.55;4.45;;;;;;;;;;4793825;29;20500;-84
2021/09/19 09:02:18;;;;;;;7.97;4.95;;;;;;;;;;4780865;30;20070;-81
2021/09/19 09:04:44;;;;;;;7.13;4.95;;;;;;;;;;4783404;29;20054;-83
2021/09/19 09:07:13;;;;;;;6.70;4.78;;;;;;;;;;4774563;30;20039;-81
2021/09/19 09:09:51;;;;;;;7.47;5.18;;;;;;;;;;4786985;29;20044;-81
2021/09/19 09:12:17;;;;;;;5.28;4.07;;;;;;;;;;4787711;29;20035;-82
2021/09/19 09:14:47;;;;;;;7.22;4.78;;;;;;;;;;4787343;29;20058;-83
2021/09/19 09:17:25;;;;;;;8.23;4.65;;;;;;;;;;4790936;29;20195;-84
2021/09/19 09:19:56;;;;;;;6.53;4.82;;;;;;;;;;4787750;29;20035;-84
2021/09/19 09:22:29;;;;;;;6.07;4.18;;;;;;;;;;4790103;29;20023;-85
2021/09/19 09:25:15;;;;;;;5.97;4.47;;;;;;;;;;4791493;29;20039;-81
2021/09/19 09:27:49;;;;;;;8.25;4.25;;;;;;;;;;4793663;29;20379;-84
2021/09/19 09:30:24;;;;;;;7.05;4.50;;;;;;;;;;4784835;29;20096;-82
2021/09/19 09:32:52;;;;;;;6.15;4.38;;;;;;;;;;4787167;29;20408;-83
2021/09/19 09:35:18;;;;;;;7.70;5.13;;;;;;;;;;4791169;29;20365;-82
2021/09/19 09:37:44;;;;;;;5.88;4.05;;;;;;;;;;4786661;29;20042;-82
2021/09/19 09:40:19;;;;;;;5.93;4.55;;;;;;;;;;4767357;29;20056;-79
2021/09/19 09:43:20;;;;;;;6.13;4.60;;;;;;;;;;4788599;29;20107;-81
2021/09/19 09:45:47;;;;;;;5.60;4.45;;;;;;;;;;4770477;30;20035;-80
2021/09/19 09:48:38;;;;;;;5.95;4.40;;;;;;;;;;4774063;30;20047;-83
2021/09/19 09:51:04;;;;;;;6.25;4.20;;;;;;;;;;4779782;30;20051;-84
2021/09/19 09:53:30;;;;;;;5.72;4.50;;;;;;;;;;4795026;29;20037;-82
2021/09/19 09:55:58;;;;;;;5.53;4.38;;;;;;;;;;4783753;29;20026;-82
2021/09/19 09:58:23;;;;;;;4.90;3.78;;;;;;;;;;4779140;29;20044;-83
2021/09/19 10:00:51;;;;;;;6.40;4.07;;;;;;;;;;4789395;30;20058;-84
2021/09/19 10:03:18;;;;;;;5.72;3.28;;;;;;;;;;4793099;29;20088;-85
2021/09/19 10:05:43;;;;;;;5.80;3.78;;;;;;;;;;4793746;29;20042;-85
2021/09/19 10:08:10;;;;;;;5.85;4.10;;;;;;;;;;4791141;29;20031;-84
2021/09/19 10:10:43;;;;;;;5.60;4.20;;;;;;;;;;4773245;30;20624;-83
2021/09/19 10:13:10;;;;;;;7.30;4.00;;;;;;;;;;4787706;29;20027;-85
2021/09/19 10:15:36;;;;;;;4.50;3.60;;;;;;;;;;4762432;29;20042;-84
2021/09/19 10:18:02;;;;;;;6.70;3.60;;;;;;;;;;4791873;29;20126;-84
2021/09/19 10:20:37;;;;;;;6.07;3.65;;;;;;;;;;4779579;29;20042;-85
2021/09/19 10:23:16;;;;;;;5.32;3.42;;;;;;;;;;4786704;29;20173;-84
2021/09/19 10:25:49;;;;;;;6.15;3.38;;;;;;;;;;4788296;30;20038;-85
2021/09/19 10:28:18;;;;;;;5.10;3.63;;;;;;;;;;4788906;30;20035;-84
2021/09/19 10:31:08;;;;;;;6.20;3.65;;;;;;;;;;4790981;29;20035;-84
2021/09/19 10:34:08;;;;;;;5.65;3.55;;;;;;;;;;4786549;29;20046;-84
2021/09/19 10:36:45;;;;;;;6.78;3.70;;;;;;;;;;4789442;30;20034;-85
2021/09/19 10:39:30;;;;;;;4.78;3.13;;;;;;;;;;4788527;29;20042;-84
2021/09/19 10:42:28;;;;;;;4.65;3.17;;;;;;;;;;4774757;30;20031;-85
2021/09/19 10:45:07;;;;;;;5.43;3.17;;;;;;;;;;4783634;30;20046;-85
2021/09/19 10:47:49;;;;;;;5.68;3.70;;;;;;;;;;4793161;29;20497;-85
2021/09/19 10:50:36;;;;;;;6.15;3.50;;;;;;;;;;4775324;29;20059;-85
2021/09/19 10:53:06;;;;;;;5.57;3.60;;;;;;;;;;4787721;30;20089;-83
2021/09/19 10:55:51;;;;;;;5.28;3.65;;;;;;;;;;4774241;30;20552;-84
2021/09/19 10:58:26;;;;;;;6.32;3.47;;;;;;;;;;4788943;29;20087;-84
2021/09/19 11:01:11;;;;;;;5.25;3.80;;;;;;;;;;4789580;29;20058;-84
2021/09/19 11:03:37;;;;;;;8.55;4.07;;;;;;;;;;4793398;29;20107;-84
2021/09/19 11:06:03;;;;;;;6.57;3.75;;;;;;;;;;4775130;30;20472;-84
2021/09/19 11:08:34;;;;;;;5.80;4.00;;;;;;;;;;4761124;30;20084;-85
2021/09/19 11:11:00;;;;;;;6.50;4.10;;;;;;;;;;4781296;29;20036;-84
2021/09/19 11:13:48;;;;;;;8.27;3.75;;;;;;;;;;4795908;29;20407;-84
2021/09/19 11:16:34;;;;;;;5.45;3.60;;;;;;;;;;4786804;29;20057;-85
2021/09/19 11:19:04;;;;;;;6.78;3.88;;;;;;;;;;4789821;29;20023;-83
2021/09/19 11:21:33;;;;;;;6.95;4.30;;;;;;;;;;4789401;29;20031;-83
2021/09/19 11:24:05;;;;;;;6.38;4.20;;;;;;;;;;4773291;30;20027;-82
2021/09/19 11:26:35;;;;;;;5.35;3.70;;;;;;;;;;4790431;29;20092;-84
2021/09/19 11:29:07;;;;;;;4.90;3.78;;;;;;;;;;4791446;29;20035;-83
2021/09/19 11:31:34;;;;;;;6.97;3.70;;;;;;;;;;4792117;29;20070;-84
2021/09/19 11:34:03;;;;;;;5.78;3.55;;;;;;;;;;4789246;29;20032;-83
2021/09/19 11:36:31;;;;;;;6.68;3.78;;;;;;;;;;4790811;29;20487;-85
2021/09/19 11:38:57;;;;;;;7.25;3.30;;;;;;;;;;4789189;30;20027;-84
2021/09/19 11:41:24;;;;;;;4.43;3.20;;;;;;;;;;4790825;29;20498;-85
2021/09/19 11:43:52;;;;;;;7.25;4.10;;;;;;;;;;4793988;29;20438;-84
2021/09/19 11:46:20;;;;;;;4.50;3.50;;;;;;;;;;4787964;29;20046;-83
2021/09/19 11:48:47;;;;;;;6.18;3.88;;;;;;;;;;4788846;29;20051;-83
2021/09/19 11:51:15;;;;;;;4.53;3.35;;;;;;;;;;4777941;30;20058;-84
2021/09/19 11:53:43;;;;;;;6.07;3.67;;;;;;;;;;4786367;30;20668;-83
2021/09/19 11:56:09;;;;;;;5.13;3.30;;;;;;;;;;4789344;30;20045;-84
2021/09/19 11:58:34;;;;;;;4.30;3.03;;;;;;;;;;4788211;29;20031;-84
2021/09/19 12:01:01;;;;;;;6.38;3.20;;;;;;;;;;4789730;30;20396;-84
2021/09/19 12:03:28;;;;;;;7.57;3.45;;;;;;;;;;4791179;29;20035;-84
2021/09/19 12:05:55;;;;;;;4.95;3.40;;;;;;;;;;4790727;29;20511;-84
2021/09/19 12:08:22;;;;;;;5.05;2.75;;;;;;;;;;4790005;29;20043;-84
2021/09/19 12:10:49;;;;;;;3.90;2.60;;;;;;;;;;4787157;29;20497;-84
2021/09/19 12:13:26;;;;;;;5.10;3.05;;;;;;;;;;4787884;30;20027;-84
2021/09/19 12:16:13;;;;;;;4.07;3.17;;;;;;;;;;4785346;29;20035;-84
2021/09/19 12:18:41;;;;;;;4.30;3.17;;;;;;;;;;4798378;29;20038;-84
2021/09/19 12:21:16;;;;;;;4.75;2.92;;;;;;;;;;4794854;29;20026;-83
2021/09/19 12:23:53;;;;;;;3.33;2.45;;;;;;;;;;4796570;29;20034;-84
2021/09/19 12:26:30;;;;;;;3.97;2.42;;;;;;;;;;4789898;30;20398;-84
2021/09/19 12:28:59;;;;;;;3.80;2.35;;;;;;;;;;4775043;30;20385;-84
2021/09/19 12:31:38;;;;;;;4.90;2.65;;;;;;;;;;4787276;29;20023;-84
2021/09/19 12:34:08;;;;;;;4.68;3.20;;;;;;;;;;4792343;29;20043;-83
2021/09/19 12:36:55;;;;;;;5.88;2.80;;;;;;;;;;4786798;30;20096;-83
2021/09/19 12:39:27;;;;;;;4.65;2.75;;;;;;;;;;4778087;30;20399;-83
2021/09/19 12:41:56;;;;;;;4.32;2.97;;;;;;;;;;4793515;29;20031;-84
2021/09/19 12:44:25;;;;;;;3.78;2.60;;;;;;;;;;4788270;30;20040;-83
2021/09/19 12:46:53;;;;;;;4.05;2.80;;;;;;;;;;4779190;29;20035;-84
2021/09/19 12:49:42;;;;;;;6.28;2.38;;;;;;;;;;4786478;29;20035;-84
2021/09/19 12:52:18;;;;;;;5.57;2.83;;;;;;;;;;4789731;29;20448;-83
2021/09/19 12:54:54;;;;;;;3.85;2.10;;;;;;;;;;4794259;29;20035;-84
2021/09/19 12:57:22;;;;;;;4.57;2.53;;;;;;;;;;4795836;29;20058;-84
2021/09/19 12:59:47;;;;;;;4.63;2.30;;;;;;;;;;4773663;29;20043;-84
2021/09/19 13:02:14;;;;;;;5.13;2.63;;;;;;;;;;4795661;29;20046;-83
2021/09/19 13:04:40;;;;;;;3.92;2.75;;;;;;;;;;4791226;29;20027;-83
2021/09/19 13:07:05;;;;;;;6.03;2.42;;;;;;;;;;4793052;29;20453;-83
2021/09/19 13:09:31;;;;;;;4.45;2.70;;;;;;;;;;4781538;30;20048;-83
2021/09/19 13:11:57;;;;;;;4.03;2.35;;;;;;;;;;4764015;30;20035;-83
2021/09/19 13:14:23;;;;;;;3.15;2.15;;;;;;;;;;4771090;29;20038;-83
2021/09/19 13:16:48;;;;;;;3.78;2.20;;;;;;;;;;4784740;30;20039;-83
2021/09/19 13:19:14;;;;;;;4.90;2.17;;;;;;;;;;4777328;30;20487;-83
2021/09/19 13:21:42;;;;;;;3.88;2.40;;;;;;;;;;4767596;30;20135;-83
2021/09/19 13:24:09;;;;;;;3.40;2.08;;;;;;;;;;4794494;29;20027;-83
2021/09/19 13:26:35;;;;;;;3.30;2.03;;;;;;;;;;4794705;29;20031;-84
2021/09/19 13:29:03;;;;;;;4.25;1.90;;;;;;;;;;4787737;29;20089;-82
2021/09/19 13:31:29;;;;;;;2.85;2.00;;;;;;;;;;4799877;29;20043;-83
2021/09/19 13:33:55;;;;;;;5.07;2.03;;;;;;;;;;4778494;30;20542;-83
2021/09/19 13:36:21;;;;;;;3.50;2.05;;;;;;;;;;4777418;29;20059;-83
2021/09/19 13:38:46;;;;;;;4.55;2.17;;;;;;;;;;4774953;30;20039;-83
2021/09/19 13:41:12;;;;;;;3.50;2.33;;;;;;;;;;4795048;29;20035;-83
2021/09/19 13:43:39;;;;;;;5.32;2.30;;;;;;;;;;4795450;29;20039;-83
2021/09/19 13:46:04;;;;;;;3.10;2.10;;;;;;;;;;4790783;29;20070;-83
2021/09/19 13:48:30;;;;;;;5.38;2.20;;;;;;;;;;4778368;30;20071;-83
2021/09/19 13:50:56;;;;;;;4.35;2.40;;;;;;;;;;4777423;29;20459;-83
2021/09/19 13:53:22;;;;;;;3.58;2.35;;;;;;;;;;4792355;29;20039;-83
2021/09/19 13:55:48;;;;;;;3.95;2.80;;;;;;;;;;4780653;30;20462;-83
2021/09/19 13:58:14;;;;;;;3.85;2.53;;;;;;;;;;4795378;29;20043;-83
2021/09/19 14:00:41;;;;;;;8.80;2.45;;;;;;;;;;4780784;30;20423;-83
2021/09/19 14:03:06;;;;;;;4.15;2.42;;;;;;;;;;4786217;29;20036;-84
2021/09/19 14:05:32;;;;;;;4.18;2.05;;;;;;;;;;4795563;29;20036;-84
2021/09/19 14:07:57;;;;;;;3.45;2.25;;;;;;;;;;4764886;29;20039;-83
2021/09/19 14:10:23;;;;;;;3.65;2.40;;;;;;;;;;4793114;29;20046;-83
2021/09/19 14:12:48;;;;;;;3.95;2.15;;;;;;;;;;4775835;29;20547;-83
2021/09/19 14:15:14;;;;;;;2.97;1.90;;;;;;;;;;4778551;30;20125;-83
2021/09/19 14:17:39;;;;;;;2.85;1.92;;;;;;;;;;4762221;30;20043;-83
2021/09/19 14:20:10;;;;;;;8.43;2.15;;;;;;;;;;4768735;30;20031;-83
2021/09/19 14:22:36;;;;;;;3.65;1.90;;;;;;;;;;4796391;29;20031;-83
2021/09/19 14:25:03;;;;;;;2.58;2.00;;;;;;;;;;4790354;29;20043;-83
2021/09/19 14:27:28;;;;;;;2.90;1.92;;;;;;;;;;4790134;29;20118;-82
2021/09/19 14:29:54;;;;;;;2.70;2.00;;;;;;;;;;4795944;29;20066;-83
2021/09/19 14:32:19;;;;;;;2.75;2.05;;;;;;;;;;4794486;29;20020;-83
2021/09/19 14:34:45;;;;;;;2.67;2.08;;;;;;;;;;4780603;29;20147;-83
2021/09/19 14:37:10;;;;;;;3.40;2.08;;;;;;;;;;4796604;29;20073;-83
2021/09/19 14:39:35;;;;;;;4.88;2.00;;;;;;;;;;4775498;30;20035;-83
2021/09/19 14:42:01;;;;;;;4.00;2.15;;;;;;;;;;4776897;29;20088;-83
2021/09/19 14:44:26;;;;;;;3.25;1.85;;;;;;;;;;4778624;30;20036;-83